Time;durP1;ratioP1;P1;durP2;ratioP2;P2;SDS_P1;SDS_P2;PMS_P1;PMS_P2;Temp;Humidity;BMP_temperature;BMP_pressure;BME280_temperature;BME280_humidity;BME280_pressure;Samples;Min_cycle;Max_cycle;Signal;HPM_P1;HPM_P2
2023/04/07 00:01:07;;;;;;;9.23;8.32;;;;;;;;;;5043426;28;20070;-66
2023/04/07 00:03:34;;;;;;;9.57;8.32;;;;;;;;;;5043255;28;20060;-66
2023/04/07 00:06:00;;;;;;;9.20;8.30;;;;;;;;;;5042618;28;20045;-66
2023/04/07 00:08:26;;;;;;;9.43;8.43;;;;;;;;;;5042961;28;20549;-66
2023/04/07 00:10:52;;;;;;;10.63;9.13;;;;;;;;;;5042241;28;20048;-66
2023/04/07 00:13:18;;;;;;;9.18;8.27;;;;;;;;;;5042219;28;20048;-66
2023/04/07 00:15:44;;;;;;;9.50;8.50;;;;;;;;;;5042394;28;20160;-66
2023/04/07 00:18:10;;;;;;;7.38;6.68;;;;;;;;;;5043091;28;20548;-66
2023/04/07 00:20:36;;;;;;;8.43;7.45;;;;;;;;;;5043211;28;20045;-66
2023/04/07 00:23:02;;;;;;;9.30;8.38;;;;;;;;;;5040671;28;20053;-66
2023/04/07 00:25:28;;;;;;;9.48;7.70;;;;;;;;;;5043716;28;20037;-66
2023/04/07 00:27:54;;;;;;;9.52;8.52;;;;;;;;;;5041076;28;20048;-66
2023/04/07 00:30:20;;;;;;;9.25;8.32;;;;;;;;;;5041986;28;20061;-66
2023/04/07 00:32:46;;;;;;;9.77;8.60;;;;;;;;;;5042344;28;20602;-65
2023/04/07 00:35:12;;;;;;;9.07;8.18;;;;;;;;;;5043299;28;20128;-66
2023/04/07 00:37:38;;;;;;;10.55;9.00;;;;;;;;;;5040802;28;20053;-67
2023/04/07 00:40:05;;;;;;;7.45;6.75;;;;;;;;;;5042645;28;20072;-66
2023/04/07 00:42:33;;;;;;;9.02;7.55;;;;;;;;;;5042297;28;20053;-66
2023/04/07 00:44:59;;;;;;;8.23;6.93;;;;;;;;;;5041670;28;20059;-66
2023/04/07 00:47:25;;;;;;;8.80;8.00;;;;;;;;;;5043356;28;20078;-66
2023/04/07 00:49:51;;;;;;;10.52;8.75;;;;;;;;;;5042597;28;20053;-66
2023/04/07 00:52:18;;;;;;;12.60;11.07;;;;;;;;;;5042535;28;20112;-66
2023/04/07 00:54:45;;;;;;;8.65;7.70;;;;;;;;;;5042429;28;20045;-66
2023/04/07 00:57:11;;;;;;;11.57;10.38;;;;;;;;;;5040938;28;20094;-66
2023/04/07 00:59:38;;;;;;;10.07;9.07;;;;;;;;;;5040302;28;20049;-66
2023/04/07 01:02:12;;;;;;;9.23;8.18;;;;;;;;;;5040064;28;20053;-66
2023/04/07 01:04:40;;;;;;;8.80;7.90;;;;;;;;;;5042748;28;20041;-66
2023/04/07 01:07:11;;;;;;;9.93;8.75;;;;;;;;;;5040900;28;20125;-66
2023/04/07 01:09:42;;;;;;;9.02;7.88;;;;;;;;;;5041756;28;20049;-66
2023/04/07 01:12:28;;;;;;;11.40;9.68;;;;;;;;;;5041755;28;20493;-66
2023/04/07 01:14:58;;;;;;;9.63;8.63;;;;;;;;;;5039498;28;20122;-66
2023/04/07 01:17:25;;;;;;;9.07;7.85;;;;;;;;;;5043027;28;20052;-66
2023/04/07 01:19:54;;;;;;;9.80;8.18;;;;;;;;;;5041478;28;20119;-66
2023/04/07 01:22:26;;;;;;;8.70;7.80;;;;;;;;;;5041487;28;20136;-66
2023/04/07 01:25:11;;;;;;;7.97;7.18;;;;;;;;;;5040216;28;20057;-66
2023/04/07 01:27:40;;;;;;;7.55;6.85;;;;;;;;;;5041754;28;20092;-66
2023/04/07 01:30:08;;;;;;;8.63;7.72;;;;;;;;;;5041353;28;20506;-66
2023/04/07 01:32:35;;;;;;;7.10;6.43;;;;;;;;;;5041354;28;20140;-66
2023/04/07 01:35:02;;;;;;;7.78;6.97;;;;;;;;;;5039334;28;20075;-66
2023/04/07 01:37:29;;;;;;;7.95;7.00;;;;;;;;;;5041057;28;20079;-66
2023/04/07 01:39:55;;;;;;;6.43;5.90;;;;;;;;;;5041154;28;20044;-66
2023/04/07 01:42:21;;;;;;;9.10;8.15;;;;;;;;;;5042965;28;20060;-66
2023/04/07 01:44:48;;;;;;;7.47;6.72;;;;;;;;;;5042090;28;20041;-66
2023/04/07 01:47:15;;;;;;;7.32;6.63;;;;;;;;;;5042902;28;20128;-66
2023/04/07 01:49:41;;;;;;;7.38;6.68;;;;;;;;;;5042230;28;20037;-66
2023/04/07 01:52:07;;;;;;;9.15;8.25;;;;;;;;;;5041116;28;20545;-66
2023/04/07 01:54:34;;;;;;;8.70;7.80;;;;;;;;;;5041933;28;20195;-66
2023/04/07 01:57:00;;;;;;;10.57;9.50;;;;;;;;;;5041240;28;20063;-66
2023/04/07 01:59:27;;;;;;;11.10;9.95;;;;;;;;;;5041977;28;20037;-66
2023/04/07 02:01:53;;;;;;;11.27;10.18;;;;;;;;;;5040766;28;20502;-66
2023/04/07 02:04:22;;;;;;;10.57;9.57;;;;;;;;;;5042609;28;20044;-66
2023/04/07 02:06:51;;;;;;;9.13;8.20;;;;;;;;;;5041450;28;20548;-66
2023/04/07 02:09:19;;;;;;;10.30;9.30;;;;;;;;;;5041406;28;20045;-66
2023/04/07 02:11:45;;;;;;;11.15;10.07;;;;;;;;;;5041540;28;20494;-66
2023/04/07 02:14:13;;;;;;;9.05;8.15;;;;;;;;;;5045604;28;20398;-66
2023/04/07 02:16:40;;;;;;;9.60;8.60;;;;;;;;;;5043226;28;20542;-66
2023/04/07 02:19:07;;;;;;;9.75;8.55;;;;;;;;;;5044751;28;20049;-66
2023/04/07 02:21:33;;;;;;;10.60;9.60;;;;;;;;;;5045808;28;20045;-66
2023/04/07 02:24:06;;;;;;;10.55;9.45;;;;;;;;;;5042306;28;20051;-66
2023/04/07 02:26:35;;;;;;;10.75;9.65;;;;;;;;;;5044517;28;20045;-66
2023/04/07 02:29:02;;;;;;;9.43;8.45;;;;;;;;;;5044116;28;20697;-66
2023/04/07 02:31:28;;;;;;;9.65;8.40;;;;;;;;;;5045108;28;20107;-66
2023/04/07 02:33:54;;;;;;;9.93;8.93;;;;;;;;;;5044827;28;20168;-66
2023/04/07 02:36:20;;;;;;;9.18;8.25;;;;;;;;;;5044996;28;20051;-66
2023/04/07 02:38:46;;;;;;;8.77;7.88;;;;;;;;;;5044902;28;20055;-67
2023/04/07 02:41:12;;;;;;;8.05;7.28;;;;;;;;;;5045105;28;20124;-66
2023/04/07 02:43:38;;;;;;;8.52;7.63;;;;;;;;;;5044927;28;20127;-66
2023/04/07 02:46:04;;;;;;;7.40;6.57;;;;;;;;;;5042705;28;20542;-66
2023/04/07 02:48:30;;;;;;;7.78;7.07;;;;;;;;;;5045031;28;20355;-66
2023/04/07 02:50:56;;;;;;;8.02;7.22;;;;;;;;;;5043953;28;20130;-67
2023/04/07 02:53:22;;;;;;;9.27;8.38;;;;;;;;;;5044702;28;20075;-66
2023/04/07 02:55:48;;;;;;;8.98;8.15;;;;;;;;;;5044064;28;20392;-66
2023/04/07 02:58:14;;;;;;;8.38;7.63;;;;;;;;;;5043740;28;20055;-66
2023/04/07 03:00:40;;;;;;;9.70;8.75;;;;;;;;;;5045101;28;20037;-66
2023/04/07 03:03:07;;;;;;;10.68;8.95;;;;;;;;;;5044065;28;20076;-66
2023/04/07 03:05:32;;;;;;;8.90;8.00;;;;;;;;;;5044253;28;20079;-66
2023/04/07 03:07:59;;;;;;;10.02;9.02;;;;;;;;;;5043776;28;20138;-66
2023/04/07 03:10:25;;;;;;;9.52;8.38;;;;;;;;;;5044051;28;20053;-66
2023/04/07 03:12:51;;;;;;;9.40;8.43;;;;;;;;;;5043510;28;20041;-66
2023/04/07 03:15:17;;;;;;;8.52;7.72;;;;;;;;;;5045210;28;20044;-66
2023/04/07 03:17:43;;;;;;;9.00;8.10;;;;;;;;;;5044408;28;20410;-66
2023/04/07 03:20:09;;;;;;;10.82;9.68;;;;;;;;;;5043780;28;20045;-66
2023/04/07 03:22:35;;;;;;;9.75;8.85;;;;;;;;;;5044544;28;20059;-66
2023/04/07 03:25:01;;;;;;;11.43;10.32;;;;;;;;;;5044033;28;20041;-66
2023/04/07 03:27:27;;;;;;;11.13;9.98;;;;;;;;;;5043802;28;20076;-66
2023/04/07 03:29:53;;;;;;;9.07;8.20;;;;;;;;;;5042842;28;20550;-66
2023/04/07 03:32:19;;;;;;;9.45;8.52;;;;;;;;;;5043395;28;20045;-66
2023/04/07 03:34:45;;;;;;;10.95;9.85;;;;;;;;;;5041795;28;20064;-66
2023/04/07 03:37:11;;;;;;;9.50;8.60;;;;;;;;;;5044059;28;20105;-66
2023/04/07 03:39:38;;;;;;;10.50;9.50;;;;;;;;;;5041025;28;20546;-66
2023/04/07 03:42:04;;;;;;;12.65;11.35;;;;;;;;;;5044276;28;20283;-66
2023/04/07 03:44:31;;;;;;;11.98;10.77;;;;;;;;;;5044234;28;20114;-66
2023/04/07 03:46:57;;;;;;;11.68;9.98;;;;;;;;;;5042736;28;20048;-66
2023/04/07 03:49:23;;;;;;;11.13;10.02;;;;;;;;;;5043883;28;20055;-66
2023/04/07 03:51:49;;;;;;;11.15;10.02;;;;;;;;;;5043521;28;20045;-66
2023/04/07 03:54:15;;;;;;;12.40;11.20;;;;;;;;;;5043369;28;20063;-66
2023/04/07 03:56:41;;;;;;;11.32;10.23;;;;;;;;;;5042287;28;20052;-66
2023/04/07 03:59:07;;;;;;;9.98;8.98;;;;;;;;;;5042579;28;20056;-66
2023/04/07 04:01:33;;;;;;;11.25;10.15;;;;;;;;;;5043491;28;20044;-66
2023/04/07 04:03:59;;;;;;;10.05;9.13;;;;;;;;;;5041229;28;20132;-66
2023/04/07 04:06:26;;;;;;;10.20;9.20;;;;;;;;;;5043737;28;20103;-66
2023/04/07 04:08:52;;;;;;;9.70;8.70;;;;;;;;;;5041928;28;20045;-66
2023/04/07 04:11:18;;;;;;;12.23;11.00;;;;;;;;;;5041697;28;20051;-66
2023/04/07 04:13:44;;;;;;;11.38;10.18;;;;;;;;;;5043095;28;20399;-66
2023/04/07 04:16:10;;;;;;;10.68;9.60;;;;;;;;;;5042291;28;20491;-66
2023/04/07 04:18:36;;;;;;;12.07;10.85;;;;;;;;;;5043543;28;20068;-66
2023/04/07 04:21:02;;;;;;;11.25;10.15;;;;;;;;;;5042611;28;20377;-66
2023/04/07 04:23:28;;;;;;;12.00;10.80;;;;;;;;;;5043166;28;20049;-66
2023/04/07 04:25:54;;;;;;;12.35;11.15;;;;;;;;;;5042341;28;20057;-66
2023/04/07 04:28:20;;;;;;;10.77;9.77;;;;;;;;;;5042715;28;20140;-66
2023/04/07 04:30:47;;;;;;;11.38;10.18;;;;;;;;;;5038660;28;20052;-66
2023/04/07 04:33:13;;;;;;;10.57;9.50;;;;;;;;;;5042913;28;20073;-66
2023/04/07 04:35:39;;;;;;;10.50;9.40;;;;;;;;;;5041385;28;20072;-66
2023/04/07 04:38:05;;;;;;;11.05;9.82;;;;;;;;;;5041541;28;20057;-66
2023/04/07 04:40:31;;;;;;;12.93;11.07;;;;;;;;;;5043620;28;20045;-66
2023/04/07 04:42:57;;;;;;;13.82;12.35;;;;;;;;;;5041819;28;20041;-66
2023/04/07 04:45:23;;;;;;;11.55;10.35;;;;;;;;;;5043291;28;20052;-66
2023/04/07 04:47:49;;;;;;;12.05;10.85;;;;;;;;;;5041345;28;20455;-65
2023/04/07 04:50:15;;;;;;;12.55;11.35;;;;;;;;;;5042462;28;20053;-66
2023/04/07 04:52:42;;;;;;;11.90;10.70;;;;;;;;;;5042961;28;20375;-66
2023/04/07 04:55:08;;;;;;;11.48;10.27;;;;;;;;;;5042099;28;20513;-66
2023/04/07 04:57:35;;;;;;;11.25;10.07;;;;;;;;;;5042333;28;20051;-66
2023/04/07 05:00:02;;;;;;;12.48;11.18;;;;;;;;;;5042517;28;20041;-66
2023/04/07 05:02:28;;;;;;;11.65;10.40;;;;;;;;;;5042190;28;20461;-66
2023/04/07 05:04:54;;;;;;;11.00;9.95;;;;;;;;;;5041822;28;20048;-66
2023/04/07 05:07:20;;;;;;;10.90;9.73;;;;;;;;;;5041137;28;20075;-66
2023/04/07 05:09:46;;;;;;;13.77;11.52;;;;;;;;;;5039545;28;20052;-67
2023/04/07 05:12:15;;;;;;;12.98;11.25;;;;;;;;;;5041151;28;20044;-66
2023/04/07 05:14:41;;;;;;;13.15;10.63;;;;;;;;;;5042512;28;20259;-66
2023/04/07 05:17:07;;;;;;;11.63;10.43;;;;;;;;;;5040790;28;20722;-66
2023/04/07 05:19:33;;;;;;;12.27;10.75;;;;;;;;;;5042278;28;20041;-66
2023/04/07 05:22:00;;;;;;;11.25;9.98;;;;;;;;;;5039159;28;20509;-66
2023/04/07 05:24:26;;;;;;;10.68;9.35;;;;;;;;;;5039980;28;20060;-66
2023/04/07 05:26:52;;;;;;;9.95;8.95;;;;;;;;;;5039976;28;20132;-66
2023/04/07 05:29:18;;;;;;;9.93;8.88;;;;;;;;;;5040699;28;20132;-66
2023/04/07 05:31:44;;;;;;;10.68;9.55;;;;;;;;;;5042324;28;20403;-66
2023/04/07 05:34:10;;;;;;;12.05;10.75;;;;;;;;;;5041497;28;20049;-66
2023/04/07 05:36:36;;;;;;;15.57;13.23;;;;;;;;;;5041996;28;20053;-66
2023/04/07 05:39:02;;;;;;;10.80;9.70;;;;;;;;;;5039306;28;20132;-66
2023/04/07 05:41:28;;;;;;;12.30;10.48;;;;;;;;;;5043281;28;20095;-66
2023/04/07 05:43:54;;;;;;;11.27;10.20;;;;;;;;;;5040124;28;20057;-66
2023/04/07 05:46:20;;;;;;;11.30;10.10;;;;;;;;;;5044720;28;20734;-66
2023/04/07 05:48:47;;;;;;;11.13;9.27;;;;;;;;;;5040099;28;20606;-66
2023/04/07 05:51:13;;;;;;;14.20;11.35;;;;;;;;;;5045888;28;20099;-66
2023/04/07 05:53:39;;;;;;;13.70;11.93;;;;;;;;;;5045940;28;20041;-66
2023/04/07 05:56:05;;;;;;;11.93;10.63;;;;;;;;;;5044909;28;20604;-66
2023/04/07 05:58:31;;;;;;;11.45;10.25;;;;;;;;;;5043920;28;20568;-66
2023/04/07 06:00:57;;;;;;;12.93;10.73;;;;;;;;;;5043394;28;20059;-66
2023/04/07 06:03:23;;;;;;;12.75;10.65;;;;;;;;;;5044754;28;20149;-66
2023/04/07 06:05:49;;;;;;;14.73;10.73;;;;;;;;;;5045402;28;20566;-66
2023/04/07 06:08:15;;;;;;;13.65;11.05;;;;;;;;;;5045357;28;20029;-66
2023/04/07 06:10:43;;;;;;;12.10;10.20;;;;;;;;;;5043425;28;20465;-66
2023/04/07 06:13:09;;;;;;;11.93;10.73;;;;;;;;;;5041406;28;20154;-66
2023/04/07 06:15:35;;;;;;;14.02;10.90;;;;;;;;;;5044533;28;20124;-66
2023/04/07 06:18:01;;;;;;;14.00;11.63;;;;;;;;;;5043143;28;20052;-66
2023/04/07 06:20:27;;;;;;;14.65;11.80;;;;;;;;;;5045866;28;20637;-66
2023/04/07 06:22:53;;;;;;;12.80;11.48;;;;;;;;;;5043998;28;20131;-66
2023/04/07 06:25:20;;;;;;;12.45;11.15;;;;;;;;;;5045483;28;20106;-66
2023/04/07 06:27:46;;;;;;;11.95;10.35;;;;;;;;;;5045509;28;20045;-66
2023/04/07 06:30:12;;;;;;;13.32;11.45;;;;;;;;;;5043719;28;20088;-66
2023/04/07 06:32:38;;;;;;;11.73;10.45;;;;;;;;;;5045604;28;20057;-66
2023/04/07 06:35:05;;;;;;;12.13;10.60;;;;;;;;;;5042729;28;20432;-66
2023/04/07 06:37:31;;;;;;;13.52;12.02;;;;;;;;;;5044819;28;20638;-66
2023/04/07 06:39:57;;;;;;;14.07;12.10;;;;;;;;;;5044759;28;20045;-66
2023/04/07 06:42:23;;;;;;;12.25;10.50;;;;;;;;;;5043564;28;20095;-66
2023/04/07 06:44:49;;;;;;;14.10;11.75;;;;;;;;;;5042026;28;20480;-66
2023/04/07 06:47:15;;;;;;;13.38;11.98;;;;;;;;;;5040873;28;20102;-66
2023/04/07 06:49:41;;;;;;;12.60;10.60;;;;;;;;;;5043659;28;20084;-66
2023/04/07 06:52:07;;;;;;;12.32;11.00;;;;;;;;;;5043974;28;20067;-66
2023/04/07 06:54:33;;;;;;;9.57;8.57;;;;;;;;;;5045392;28;20037;-66
2023/04/07 06:57:00;;;;;;;11.02;9.75;;;;;;;;;;5041379;28;20056;-66
2023/04/07 06:59:26;;;;;;;11.02;9.93;;;;;;;;;;5044666;28;20432;-66
2023/04/07 07:01:52;;;;;;;11.80;10.55;;;;;;;;;;5037695;28;20099;-66
2023/04/07 07:04:18;;;;;;;11.98;10.55;;;;;;;;;;5044818;28;20441;-66
2023/04/07 07:06:44;;;;;;;11.80;9.93;;;;;;;;;;5045060;28;20044;-66
2023/04/07 07:09:10;;;;;;;15.10;11.55;;;;;;;;;;5043913;28;20101;-67
2023/04/07 07:11:36;;;;;;;12.40;11.20;;;;;;;;;;5041005;28;20467;-66
2023/04/07 07:14:02;;;;;;;11.75;10.65;;;;;;;;;;5043416;28;20045;-66
2023/04/07 07:16:28;;;;;;;11.18;9.98;;;;;;;;;;5038885;28;20060;-66
2023/04/07 07:18:54;;;;;;;11.27;10.13;;;;;;;;;;5041941;28;20092;-67
2023/04/07 07:21:20;;;;;;;11.13;10.02;;;;;;;;;;5044984;28;20478;-66
2023/04/07 07:23:46;;;;;;;12.95;10.93;;;;;;;;;;5045282;28;20084;-66
2023/04/07 07:26:12;;;;;;;12.20;10.73;;;;;;;;;;5043658;28;20075;-66
2023/04/07 07:28:38;;;;;;;10.10;9.10;;;;;;;;;;5043458;28;20064;-66
2023/04/07 07:31:09;;;;;;;12.15;10.77;;;;;;;;;;5041352;28;20506;-66
2023/04/07 07:33:35;;;;;;;14.00;11.35;;;;;;;;;;5043009;28;20063;-67
2023/04/07 07:36:02;;;;;;;10.82;9.73;;;;;;;;;;5042442;28;20143;-66
2023/04/07 07:38:28;;;;;;;12.25;10.63;;;;;;;;;;5044356;28;20135;-66
2023/04/07 07:40:54;;;;;;;12.10;10.90;;;;;;;;;;5042949;28;20094;-67
2023/04/07 07:43:20;;;;;;;13.65;11.55;;;;;;;;;;5043109;28;20057;-66
2023/04/07 07:45:46;;;;;;;13.38;10.88;;;;;;;;;;5043292;28;20471;-66
2023/04/07 07:48:12;;;;;;;12.50;11.20;;;;;;;;;;5046107;28;20052;-66
2023/04/07 07:50:38;;;;;;;11.38;10.18;;;;;;;;;;5042549;28;20060;-66
2023/04/07 07:53:04;;;;;;;10.82;9.73;;;;;;;;;;5042476;28;20044;-66
2023/04/07 07:55:30;;;;;;;11.10;9.73;;;;;;;;;;5046354;28;20063;-66
2023/04/07 07:57:56;;;;;;;11.10;9.90;;;;;;;;;;5042965;28;20045;-66
2023/04/07 08:00:22;;;;;;;9.27;8.32;;;;;;;;;;5039014;28;20674;-64
2023/04/07 08:02:49;;;;;;;9.95;8.95;;;;;;;;;;5042339;28;20049;-65
2023/04/07 08:05:15;;;;;;;10.05;9.05;;;;;;;;;;5041765;28;20438;-67
2023/04/07 08:07:42;;;;;;;10.68;9.43;;;;;;;;;;5043006;28;20049;-69
2023/04/07 08:10:09;;;;;;;9.70;8.70;;;;;;;;;;5043775;28;20415;-73
2023/04/07 08:12:35;;;;;;;12.70;11.43;;;;;;;;;;5039443;28;20553;-69
2023/04/07 08:15:01;;;;;;;11.45;10.30;;;;;;;;;;5044336;28;20143;-73
2023/04/07 08:17:27;;;;;;;11.23;9.55;;;;;;;;;;5045354;28;20110;-73
2023/04/07 08:19:53;;;;;;;9.82;8.82;;;;;;;;;;5043868;28;20589;-73
2023/04/07 08:22:19;;;;;;;8.68;7.88;;;;;;;;;;5043965;28;20310;-73
2023/04/07 08:24:46;;;;;;;9.70;8.80;;;;;;;;;;5042536;28;20048;-74
2023/04/07 08:27:12;;;;;;;10.40;8.88;;;;;;;;;;5044178;28;20049;-73
2023/04/07 08:29:38;;;;;;;10.23;9.13;;;;;;;;;;5043860;28;20471;-72
2023/04/07 08:32:04;;;;;;;9.85;8.95;;;;;;;;;;5043365;28;20550;-69
2023/04/07 08:34:30;;;;;;;9.48;8.57;;;;;;;;;;5037061;28;20048;-69
2023/04/07 08:36:56;;;;;;;9.75;8.75;;;;;;;;;;5033884;28;20046;-69
2023/04/07 08:39:24;;;;;;;7.93;7.13;;;;;;;;;;5041854;28;20052;-69
2023/04/07 08:41:51;;;;;;;9.20;8.18;;;;;;;;;;5042717;28;20086;-69
2023/04/07 08:44:17;;;;;;;8.10;7.30;;;;;;;;;;5044089;28;20098;-69
2023/04/07 08:46:44;;;;;;;10.45;8.73;;;;;;;;;;5038458;28;20036;-71
2023/04/07 08:49:12;;;;;;;10.38;9.38;;;;;;;;;;5037291;28;20049;-69
2023/04/07 08:51:43;;;;;;;8.65;7.60;;;;;;;;;;5033835;28;20048;-69
2023/04/07 08:54:12;;;;;;;8.95;8.05;;;;;;;;;;5041188;28;20040;-69
2023/04/07 08:56:40;;;;;;;9.55;8.65;;;;;;;;;;5043684;28;20470;-70
2023/04/07 08:59:06;;;;;;;7.85;7.15;;;;;;;;;;5032287;28;20055;-70
2023/04/07 09:01:34;;;;;;;8.13;7.30;;;;;;;;;;5023941;28;20511;-70
2023/04/07 09:04:01;;;;;;;8.52;7.63;;;;;;;;;;5023641;28;20124;-70
2023/04/07 09:06:30;;;;;;;8.48;7.68;;;;;;;;;;5023571;28;20045;-70
2023/04/07 09:08:57;;;;;;;8.80;7.90;;;;;;;;;;5023403;28;20079;-70
2023/04/07 09:11:23;;;;;;;9.90;8.93;;;;;;;;;;5021277;28;20049;-70
2023/04/07 09:13:50;;;;;;;8.55;7.75;;;;;;;;;;5023363;28;20052;-70
2023/04/07 09:16:16;;;;;;;10.85;9.75;;;;;;;;;;5023286;28;20041;-69
2023/04/07 09:18:42;;;;;;;9.27;8.48;;;;;;;;;;5022777;28;20587;-70
2023/04/07 09:21:10;;;;;;;10.52;8.82;;;;;;;;;;5027582;28;20053;-70
2023/04/07 09:23:40;;;;;;;10.02;9.02;;;;;;;;;;5031418;28;20456;-70
2023/04/07 09:26:20;;;;;;;10.05;9.05;;;;;;;;;;5029104;28;20384;-70
2023/04/07 09:28:47;;;;;;;12.52;10.23;;;;;;;;;;5031061;28;20088;-70
2023/04/07 09:31:13;;;;;;;11.85;10.75;;;;;;;;;;5029250;28;20065;-70
2023/04/07 09:33:39;;;;;;;13.05;11.75;;;;;;;;;;5031151;28;20071;-70
2023/04/07 09:36:06;;;;;;;11.80;9.98;;;;;;;;;;5030662;28;20042;-69
2023/04/07 09:38:33;;;;;;;11.45;10.27;;;;;;;;;;5030674;28;20095;-69
2023/04/07 09:41:25;;;;;;;10.80;9.70;;;;;;;;;;5031328;28;20045;-70
2023/04/07 09:43:57;;;;;;;8.85;8.00;;;;;;;;;;5029038;28;20060;-69
2023/04/07 09:46:23;;;;;;;10.68;9.68;;;;;;;;;;5030579;28;20043;-69
2023/04/07 09:49:00;;;;;;;8.80;7.95;;;;;;;;;;5031095;28;20076;-69
2023/04/07 09:51:26;;;;;;;10.32;9.23;;;;;;;;;;5030289;28;20057;-70
2023/04/07 09:53:52;;;;;;;12.25;11.05;;;;;;;;;;5029067;28;20499;-70
2023/04/07 09:56:23;;;;;;;12.57;11.27;;;;;;;;;;5031171;28;20102;-70
2023/04/07 09:58:53;;;;;;;10.52;9.52;;;;;;;;;;5031008;28;20665;-69
2023/04/07 10:01:20;;;;;;;11.48;10.38;;;;;;;;;;5030683;28;20476;-69
2023/04/07 10:03:46;;;;;;;13.77;11.57;;;;;;;;;;5030858;28;20096;-70
2023/04/07 10:06:13;;;;;;;9.80;8.90;;;;;;;;;;5030900;28;20099;-70
2023/04/07 10:08:40;;;;;;;11.80;10.63;;;;;;;;;;5031191;28;20037;-70
2023/04/07 10:11:06;;;;;;;12.23;10.68;;;;;;;;;;5029249;28;20057;-69
2023/04/07 10:13:33;;;;;;;12.52;11.32;;;;;;;;;;5030450;28;20415;-70
2023/04/07 10:16:02;;;;;;;10.10;9.07;;;;;;;;;;5030584;28;20049;-70
2023/04/07 10:18:30;;;;;;;9.90;8.90;;;;;;;;;;5031350;28;20045;-69
2023/04/07 10:20:57;;;;;;;12.45;10.20;;;;;;;;;;5029011;28;20092;-70
2023/04/07 10:23:32;;;;;;;11.98;10.77;;;;;;;;;;5029474;28;20136;-71
2023/04/07 10:25:59;;;;;;;9.80;8.80;;;;;;;;;;5030849;28;20037;-70
2023/04/07 10:28:26;;;;;;;10.27;7.82;;;;;;;;;;5030483;28;20049;-69
2023/04/07 10:30:53;;;;;;;8.00;7.30;;;;;;;;;;5030365;28;20064;-70
2023/04/07 10:33:39;;;;;;;8.63;7.82;;;;;;;;;;5027393;28;20132;-70
2023/04/07 10:36:07;;;;;;;9.48;8.55;;;;;;;;;;5025167;28;20084;-70
2023/04/07 10:38:33;;;;;;;9.95;8.93;;;;;;;;;;5033791;28;20080;-69
2023/04/07 10:40:59;;;;;;;7.88;7.18;;;;;;;;;;5044067;28;20134;-65
2023/04/07 10:43:43;;;;;;;8.40;7.60;;;;;;;;;;5045525;28;20044;-72
2023/04/07 10:46:09;;;;;;;7.95;7.25;;;;;;;;;;5044420;28;20056;-71
2023/04/07 10:48:35;;;;;;;6.43;5.90;;;;;;;;;;5042145;28;20044;-72
2023/04/07 10:51:04;;;;;;;5.72;5.22;;;;;;;;;;5042989;28;20048;-75
2023/04/07 10:53:30;;;;;;;5.65;5.15;;;;;;;;;;5042155;28;20037;-73
2023/04/07 10:55:58;;;;;;;7.53;6.82;;;;;;;;;;5034281;28;20120;-70
2023/04/07 10:58:24;;;;;;;5.43;4.93;;;;;;;;;;5039446;28;20781;-70
2023/04/07 11:01:08;;;;;;;5.68;5.18;;;;;;;;;;5042064;28;20132;-70
2023/04/07 11:03:35;;;;;;;6.70;5.13;;;;;;;;;;5037619;28;20045;-70
2023/04/07 11:06:05;;;;;;;6.32;5.07;;;;;;;;;;5028821;28;20049;-71
2023/04/07 11:08:38;;;;;;;5.93;5.35;;;;;;;;;;5034162;28;20072;-70
2023/04/07 11:11:10;;;;;;;6.50;6.00;;;;;;;;;;5031968;28;20056;-71
2023/04/07 11:13:42;;;;;;;5.57;5.10;;;;;;;;;;5037666;28;20044;-71
2023/04/07 11:16:09;;;;;;;6.10;5.60;;;;;;;;;;5033150;28;20066;-71
2023/04/07 11:18:36;;;;;;;7.72;6.93;;;;;;;;;;5039436;28;20045;-71
2023/04/07 11:21:02;;;;;;;7.95;6.85;;;;;;;;;;5028213;28;20487;-70
2023/04/07 11:23:28;;;;;;;8.30;7.50;;;;;;;;;;5033818;28;20049;-70
2023/04/07 11:26:00;;;;;;;8.95;8.15;;;;;;;;;;5033945;28;20048;-71
2023/04/07 11:28:27;;;;;;;8.15;7.45;;;;;;;;;;5026447;28;20161;-71
2023/04/07 11:30:54;;;;;;;6.60;6.00;;;;;;;;;;5034304;28;20107;-72
2023/04/07 11:33:31;;;;;;;6.95;6.35;;;;;;;;;;5038563;28;20099;-74
2023/04/07 11:35:58;;;;;;;7.00;6.35;;;;;;;;;;5038488;28;20131;-75
2023/04/07 11:38:26;;;;;;;7.13;6.40;;;;;;;;;;5027525;28;20053;-73
2023/04/07 11:40:52;;;;;;;6.72;6.13;;;;;;;;;;5038332;28;20052;-73
2023/04/07 11:43:21;;;;;;;6.03;5.43;;;;;;;;;;5030130;28;20190;-70
2023/04/07 11:46:05;;;;;;;6.30;5.70;;;;;;;;;;5032151;28;20116;-71
2023/04/07 11:48:32;;;;;;;6.65;6.05;;;;;;;;;;5034312;28;20045;-71
2023/04/07 11:50:58;;;;;;;7.90;7.20;;;;;;;;;;5037240;28;20041;-71
2023/04/07 11:53:25;;;;;;;7.15;6.55;;;;;;;;;;5036121;28;20099;-71
2023/04/07 11:55:58;;;;;;;7.20;6.50;;;;;;;;;;5032420;28;20053;-71
2023/04/07 11:58:24;;;;;;;6.53;5.93;;;;;;;;;;5034112;28;20492;-71
2023/04/07 12:01:07;;;;;;;6.88;6.18;;;;;;;;;;5033379;28;20049;-71
2023/04/07 12:03:34;;;;;;;6.93;6.22;;;;;;;;;;5030974;28;20132;-71
2023/04/07 12:06:01;;;;;;;6.18;5.68;;;;;;;;;;5027796;28;20063;-71
2023/04/07 12:08:37;;;;;;;6.57;6.00;;;;;;;;;;5032036;28;20052;-71
2023/04/07 12:11:04;;;;;;;6.47;5.88;;;;;;;;;;5029815;28;20496;-71
2023/04/07 12:13:30;;;;;;;4.80;4.45;;;;;;;;;;5035670;28;20068;-70
2023/04/07 12:15:56;;;;;;;5.40;4.90;;;;;;;;;;5031681;28;20045;-71
2023/04/07 12:18:22;;;;;;;5.97;5.47;;;;;;;;;;5036030;28;20045;-71
2023/04/07 12:20:49;;;;;;;7.05;6.43;;;;;;;;;;5033026;28;20045;-71
2023/04/07 12:23:15;;;;;;;6.18;5.68;;;;;;;;;;5030618;28;20129;-71
2023/04/07 12:25:41;;;;;;;6.05;5.45;;;;;;;;;;5030089;28;20060;-71
2023/04/07 12:28:07;;;;;;;6.57;5.97;;;;;;;;;;5027426;28;20119;-71
2023/04/07 12:30:33;;;;;;;6.57;5.97;;;;;;;;;;5025951;28;20072;-71
2023/04/07 12:33:02;;;;;;;6.72;6.05;;;;;;;;;;5037213;28;20049;-71
2023/04/07 12:35:28;;;;;;;5.40;5.00;;;;;;;;;;5031229;28;20069;-71
2023/04/07 12:37:53;;;;;;;5.32;4.85;;;;;;;;;;5040847;28;20662;-71
2023/04/07 12:40:20;;;;;;;4.60;4.30;;;;;;;;;;5027225;28;20119;-71
2023/04/07 12:42:46;;;;;;;6.28;5.75;;;;;;;;;;5028908;28;20727;-71
2023/04/07 12:45:12;;;;;;;5.72;5.30;;;;;;;;;;5028427;28;20127;-71
2023/04/07 12:47:39;;;;;;;5.80;5.32;;;;;;;;;;5033577;28;20140;-71
2023/04/07 12:50:05;;;;;;;4.85;4.45;;;;;;;;;;5030185;28;20045;-71
2023/04/07 12:52:31;;;;;;;5.28;4.88;;;;;;;;;;5032137;28;20436;-71
2023/04/07 12:54:58;;;;;;;8.10;4.90;;;;;;;;;;5032640;28;20060;-71
2023/04/07 12:57:24;;;;;;;7.32;6.70;;;;;;;;;;5030130;28;20675;-71
2023/04/07 12:59:52;;;;;;;5.90;5.40;;;;;;;;;;5025596;28;20053;-71
2023/04/07 13:02:18;;;;;;;6.55;5.95;;;;;;;;;;5028193;28;20073;-70
2023/04/07 13:04:45;;;;;;;6.28;5.78;;;;;;;;;;5031010;28;20068;-72
2023/04/07 13:07:12;;;;;;;5.15;4.75;;;;;;;;;;5032959;28;20056;-72
2023/04/07 13:09:39;;;;;;;6.35;5.75;;;;;;;;;;5036606;28;20049;-72
2023/04/07 13:12:05;;;;;;;6.18;5.18;;;;;;;;;;5039917;28;20588;-72
2023/04/07 13:14:31;;;;;;;5.82;5.40;;;;;;;;;;5037310;28;20135;-71
2023/04/07 13:16:57;;;;;;;5.28;4.78;;;;;;;;;;5036945;28;20399;-72
2023/04/07 13:19:23;;;;;;;6.20;5.38;;;;;;;;;;5042804;28;20048;-71
2023/04/07 13:21:49;;;;;;;5.82;5.32;;;;;;;;;;5036062;28;20447;-70
2023/04/07 13:24:15;;;;;;;6.60;6.07;;;;;;;;;;5042997;28;20388;-72
2023/04/07 13:26:41;;;;;;;6.63;6.13;;;;;;;;;;5043576;28;20487;-72
2023/04/07 13:29:07;;;;;;;6.38;5.88;;;;;;;;;;5038602;28;20487;-72
2023/04/07 13:31:33;;;;;;;5.80;5.32;;;;;;;;;;5041525;28;20075;-72
2023/04/07 13:33:59;;;;;;;6.13;5.63;;;;;;;;;;5043200;28;20059;-72
2023/04/07 13:36:27;;;;;;;6.15;5.63;;;;;;;;;;5043348;28;20053;-72
2023/04/07 13:38:53;;;;;;;6.53;5.93;;;;;;;;;;5043547;28;20542;-72
2023/04/07 13:41:18;;;;;;;5.57;5.18;;;;;;;;;;5043310;28;20131;-71
2023/04/07 13:43:45;;;;;;;5.78;5.35;;;;;;;;;;5043891;28;20057;-72
2023/04/07 13:46:16;;;;;;;5.88;5.38;;;;;;;;;;5042250;28;20081;-72
2023/04/07 13:48:43;;;;;;;5.28;4.88;;;;;;;;;;5043197;28;20091;-71
2023/04/07 13:51:10;;;;;;;5.25;4.85;;;;;;;;;;5042611;28;20055;-72
2023/04/07 13:53:36;;;;;;;5.55;5.15;;;;;;;;;;5042054;28;20069;-72
2023/04/07 13:56:04;;;;;;;8.07;6.10;;;;;;;;;;5042540;28;20052;-72
2023/04/07 13:58:31;;;;;;;5.63;5.20;;;;;;;;;;5040798;28;20060;-72
2023/04/07 14:00:57;;;;;;;4.70;4.30;;;;;;;;;;5044459;28;20041;-72
2023/04/07 14:03:23;;;;;;;5.57;5.13;;;;;;;;;;5042887;28;20506;-72
2023/04/07 14:05:49;;;;;;;4.97;4.57;;;;;;;;;;5043753;28;20041;-72
2023/04/07 14:08:17;;;;;;;5.53;5.03;;;;;;;;;;5046417;28;20612;-72
2023/04/07 14:10:46;;;;;;;4.80;4.40;;;;;;;;;;5048084;28;20053;-72
2023/04/07 14:13:12;;;;;;;5.22;4.47;;;;;;;;;;5047274;28;20134;-72
2023/04/07 14:15:38;;;;;;;3.83;3.53;;;;;;;;;;5047672;28;20605;-72
2023/04/07 14:18:05;;;;;;;3.60;3.30;;;;;;;;;;5047510;28;20193;-72
2023/04/07 14:20:34;;;;;;;3.95;3.65;;;;;;;;;;5047327;28;20048;-72
2023/04/07 14:23:03;;;;;;;4.25;3.95;;;;;;;;;;5048054;28;20414;-72
2023/04/07 14:25:29;;;;;;;3.15;2.83;;;;;;;;;;5046782;28;20056;-72
2023/04/07 14:27:55;;;;;;;4.30;3.90;;;;;;;;;;5047217;28;20053;-72
2023/04/07 14:30:21;;;;;;;4.18;3.88;;;;;;;;;;5046523;28;20518;-72
2023/04/07 14:32:47;;;;;;;3.63;3.33;;;;;;;;;;5047763;28;20053;-72